METAR Data
IDs: Format: Raw Decoded Include TAF

Data at: 0914 UTC 20 Sep 2018

KIPJ 200910Z AUTO 00000KT 7SM OVC050 20/20 A3008 RMK AO2 T02000200
KIPJ 200850Z AUTO 00000KT 5SM BR SCT050 20/20 A3008 RMK AO2 T01970197
KIPJ 200830Z AUTO 00000KT 5SM BR CLR 20/20 A3007 RMK AO2 T01980198
KIPJ 200810Z AUTO 00000KT 2SM BR CLR 20/20 A3006 RMK AO2 VIS 1V5 T02010201
KIPJ 200750Z AUTO 00000KT 2 1/2SM BR CLR 20/20 A3006 RMK AO2 VIS 1V4 T01980198
KIPJ 200730Z AUTO 00000KT 5SM BR CLR 20/20 A3007 RMK AO2 T02020202
KIPJ 200710Z AUTO 00000KT 7SM CLR 21/21 A3007 RMK AO2 T02050205
KIPJ 200650Z AUTO 00000KT 5SM BR CLR 20/20 A3007 RMK AO2 T02040204
KIPJ 200630Z AUTO 00000KT 7SM CLR 21/21 A3008 RMK AO2 T02060206
KIPJ 200610Z AUTO 00000KT 7SM CLR 21/21 A3008 RMK AO2 T02060206
KIPJ 200550Z AUTO 00000KT 7SM SCT070 21/21 A3008 RMK AO2 T02110210 10239 20211 403170175
KIPJ 200530Z AUTO 00000KT 10SM BKN070 BKN085 22/21 A3008 RMK AO2 T02150213
KIPJ 200510Z AUTO 00000KT 10SM BKN070 OVC085 22/21 A3008 RMK AO2 T02180212
KIPJ 200450Z AUTO 00000KT 10SM SCT060 BKN070 OVC085 22/22 A3008 RMK AO2 T02200216
KIPJ 200430Z AUTO 00000KT 10SM BKN060 BKN070 BKN085 22/22 A3008 RMK AO2 T02190219
KIPJ 200410Z AUTO 00000KT 10SM BKN085 22/22 A3007 RMK AO2 T02150215
KIPJ 200350Z AUTO 00000KT 7SM SCT060 OVC085 22/22 A3007 RMK AO2 T02180218
KIPJ 200330Z AUTO 00000KT 7SM BKN060 BKN075 22/22 A3007 RMK AO2 T02160216
KIPJ 200310Z AUTO 00000KT 10SM SCT060 BKN075 22/21 A3006 RMK AO2 T02160214
KIPJ 200250Z AUTO 00000KT 10SM SCT085 22/21 A3006 RMK AO2 T02170212
KIPJ 200230Z AUTO 00000KT 10SM OVC085 22/22 A3005 RMK AO2 T02210215
KIPJ 200210Z AUTO 00000KT 10SM BKN070 OVC085 22/21 A3005 RMK AO2 T02190213
KIPJ 200150Z AUTO 00000KT 10SM SCT070 SCT085 22/21 A3004 RMK AO2 T02150211
KIPJ 200130Z AUTO 00000KT 10SM CLR 22/22 A3004 RMK AO2 T02240220
KIPJ 200110Z AUTO 00000KT 10SM CLR 22/22 A3003 RMK AO2 T02220215
KIPJ 200050Z AUTO 00000KT 10SM CLR 23/22 A3002 RMK AO2 T02250215
KIPJ 200030Z AUTO 00000KT 10SM CLR 23/22 A3001 RMK AO2 T02300218
KIPJ 200010Z AUTO 00000KT 10SM CLR 23/22 A3001 RMK AO2 T02340217
KIPJ 192350Z AUTO 00000KT 10SM CLR 24/21 A3001 RMK AO2 T02380213 10317 20238
KIPJ 192330Z AUTO 00000KT 10SM CLR 25/22 A3000 RMK AO2 T02530217
KIPJ 192310Z AUTO 00000KT 10SM CLR 27/20 A3000 RMK AO2 T02710204
KIPJ 192250Z AUTO 00000KT 10SM CLR 28/20 A3000 RMK AO2 T02820200
KIPJ 192230Z AUTO 00000KT 10SM CLR 29/19 A2999 RMK AO2 T02930194
KIPJ 192210Z AUTO 00000KT 10SM CLR 30/19 A2998 RMK AO2 T03010186
KIPJ 192150Z AUTO 00000KT 10SM CLR 31/17 A2998 RMK AO2 T03070172
KIPJ 192130Z AUTO 00000KT 10SM CLR 31/16 A2998 RMK AO2 T03120161
KIPJ 192110Z AUTO 00000KT 10SM CLR 32/16 A2998 RMK AO2 T03160160
KIPJ 192050Z AUTO 00000KT 10SM CLR 31/16 A2998 RMK AO2 T03120157
KIPJ 192030Z AUTO 34003KT 10SM CLR 31/16 A2998 RMK AO2 T03130157
KIPJ 192010Z AUTO 34003KT 10SM CLR 32/16 A2998 RMK AO2 T03150160
KIPJ 191950Z AUTO 05003KT 10SM SCT060 31/16 A2998 RMK AO2 T03130159
KIPJ 191930Z AUTO 05003KT 10SM SCT060 SCT070 31/15 A2998 RMK AO2 T03100153
KIPJ 191910Z AUTO 00000KT 10SM SCT060 31/16 A2999 RMK AO2 T03100159
KIPJ 191850Z AUTO 03004KT 10SM SCT050 31/17 A3000 RMK AO2 T03120165
KIPJ 191830Z AUTO 06006KT 10SM SCT055 31/17 A3001 RMK AO2 T03090165
KIPJ 191810Z AUTO 04005KT 10SM CLR 31/16 A3001 RMK AO2 T03110163
KIPJ 191750Z AUTO 35004KT 10SM CLR 30/16 A3001 RMK AO2 T03040161 10306 20190
KIPJ 191730Z AUTO 02005KT 10SM CLR 30/16 A3002 RMK AO2 T03030158
KIPJ 191710Z AUTO 03005KT 10SM SCT050 30/16 A3003 RMK AO2 T03020158
KIPJ 191650Z AUTO 02003KT 10SM SCT050 30/16 A3004 RMK AO2 T02980160
KIPJ 191630Z AUTO 00000KT 10SM CLR 29/17 A3004 RMK AO2 T02940167
KIPJ 191610Z AUTO 02004KT 10SM CLR 29/17 A3004 RMK AO2 T02890165
KIPJ 191550Z AUTO 35004KT 10SM CLR 29/17 A3004 RMK AO2 T02900165
KIPJ 191530Z AUTO 00000KT 10SM CLR 28/18 A3004 RMK AO2 T02790180
KIPJ 191510Z AUTO 35003KT 10SM CLR 27/19 A3005 RMK AO2 T02730185
KIPJ 191450Z AUTO 00000KT 10SM CLR 27/19 A3004 RMK AO2 T02670186
KIPJ 191430Z AUTO 00000KT 10SM CLR 26/19 A3005 RMK AO2 T02610185
KIPJ 191410Z AUTO 00000KT 10SM CLR 25/19 A3004 RMK AO2 T02530188
KIPJ 191350Z AUTO 00000KT 10SM CLR 24/19 A3004 RMK AO2 T02430185
KIPJ 191330Z AUTO 00000KT 10SM CLR 23/19 A3003 RMK AO2 T02340189
KIPJ 191310Z AUTO 00000KT 10SM CLR 22/19 A3003 RMK AO2 T02240187
KIPJ 191250Z AUTO 00000KT 10SM CLR 21/19 A3003 RMK AO2 T02140186
KIPJ 191230Z AUTO 00000KT 10SM CLR 20/18 A3002 RMK AO2 T02040184
KIPJ 191210Z AUTO 00000KT 10SM CLR 20/18 A3002 RMK AO2 T01950182
KIPJ 191150Z AUTO 00000KT 10SM CLR 19/18 A3001 RMK AO2 T01860178 10191 20175
KIPJ 191130Z AUTO 00000KT 10SM CLR 18/18 A3000 RMK AO2 T01810177
KIPJ 191110Z AUTO 00000KT 10SM CLR 18/17 A3000 RMK AO2 T01750170
KIPJ 191050Z AUTO 00000KT 10SM CLR 18/17 A3000 RMK AO2 T01760169
KIPJ 191030Z AUTO 00000KT 10SM CLR 18/17 A2998 RMK AO2 T01800173
KIPJ 191010Z AUTO 00000KT 10SM CLR 18/18 A2998 RMK AO2 T01840175
KIPJ 190950Z AUTO 00000KT 10SM CLR 19/18 A2997 RMK AO2 T01850177
KIPJ 190930Z AUTO 00000KT 10SM CLR 18/18 A2997 RMK AO2 T01830175
KIPJ 190910Z AUTO 00000KT 10SM CLR 19/18 A2996 RMK AO2 T01870177
KIPJ 190850Z AUTO 00000KT 10SM CLR 19/18 A2996 RMK AO2 T01880179
KIPJ 190830Z AUTO 00000KT 10SM CLR 19/18 A2996 RMK AO2 T01900180
KIPJ 190810Z AUTO 00000KT 10SM CLR 19/18 A2996 RMK AO2 T01890180
KIPJ 190750Z AUTO 00000KT 10SM CLR 19/18 A2997 RMK AO2 T01860176
KIPJ 190730Z AUTO 00000KT 10SM CLR 18/18 A2996 RMK AO2 T01830177
KIPJ 190710Z AUTO 00000KT 10SM CLR 19/18 A2996 RMK AO2 T01870177
KIPJ 190650Z AUTO 00000KT 10SM CLR 18/18 A2996 RMK AO2 T01820176
KIPJ 190630Z AUTO 00000KT 10SM CLR 18/18 A2997 RMK AO2 T01830178
KIPJ 190610Z AUTO 00000KT 10SM CLR 18/18 A2997 RMK AO2 T01830179
KIPJ 190550Z AUTO 00000KT 10SM CLR 18/18 A2997 RMK AO2 T01840181 10231 20181 403100181
KIPJ 190530Z AUTO 00000KT 10SM CLR 19/19 A2997 RMK AO2 T01860186
KIPJ 190510Z AUTO 00000KT 10SM CLR 18/18 A2997 RMK AO2 T01840184
KIPJ 190450Z AUTO 00000KT 10SM CLR 18/18 A2997 RMK AO2 T01830183
KIPJ 190430Z AUTO 00000KT 10SM CLR 19/19 A2997 RMK AO2 T01860186
KIPJ 190410Z AUTO 00000KT 10SM CLR 19/19 A2997 RMK AO2 T01880187
KIPJ 190350Z AUTO 00000KT 10SM CLR 19/19 A2997 RMK AO2 T01910190
KIPJ 190330Z AUTO 00000KT 10SM CLR 19/19 A2997 RMK AO2 T01880187
KIPJ 190310Z AUTO 00000KT 10SM CLR 19/19 A2997 RMK AO2 T01910190
KIPJ 190250Z AUTO 00000KT 10SM CLR 19/19 A2996 RMK AO2 T01910189
KIPJ 190230Z AUTO 00000KT 10SM CLR 20/20 A2996 RMK AO2 T02000198
KIPJ 190210Z AUTO 00000KT 10SM CLR 20/20 A2995 RMK AO2 T02030199
KIPJ 190150Z AUTO 00000KT 10SM CLR 21/20 A2995 RMK AO2 T02070201
KIPJ 190130Z AUTO 00000KT 10SM CLR 21/21 A2995 RMK AO2 T02110205
KIPJ 190110Z AUTO 00000KT 10SM CLR 22/21 A2994 RMK AO2 T02170210
KIPJ 190050Z AUTO 00000KT 10SM CLR 22/21 A2993 RMK AO2 T02170209
KIPJ 190030Z AUTO 00000KT 10SM CLR 22/21 A2993 RMK AO2 T02210210
KIPJ 190010Z AUTO 00000KT 10SM CLR 23/22 A2993 RMK AO2 T02310215
KIPJ 182350Z AUTO 00000KT 10SM CLR 23/21 A2992 RMK AO2 T02340210 10310 20234
KIPJ 182330Z AUTO 00000KT 10SM CLR 25/21 A2992 RMK AO2 T02490209
KIPJ 182310Z AUTO 00000KT 10SM CLR 28/18 A2991 RMK AO2 T02830175
KIPJ 182250Z AUTO 00000KT 10SM CLR 29/18 A2991 RMK AO2 T02900180
KIPJ 182230Z AUTO 00000KT 10SM CLR 30/17 A2990 RMK AO2 T02950173
KIPJ 182210Z AUTO 00000KT 10SM CLR 30/17 A2990 RMK AO2 T03000173
KIPJ 182150Z AUTO 00000KT 10SM CLR 30/17 A2990 RMK AO2 T03020166
KIPJ 182130Z AUTO 28004KT 10SM SCT055 31/16 A2990 RMK AO2 T03060162